Airfield :
LOGIN :

Register | Disclaimer

   EN    FR    IT 

 










Legend :    VFR   Marginal VFR   IFR   Intensive IFR   Very Intensive IFR
Visi :
Ceiling :
>= 8 km
>= 3000ft
5 to 8 km
1000 to 3000 ft
1500m to 5 km
500 to 1000 ft
800 to 1500m
200 to 500 ft
< 800m
< 200 ft
Symbols :   Thunderstorms  Fog  Heavy snow  Heavy precipitations  Wind > 20 kt
SIGMETs :     Misc.  Thunderstorms  Icing  Turbulence  Mountain Waves  Volcanic Ashes







- Airport Elevation : 142 ft
- IATA code : ALC


LEAL - Alicante

CURRENT METAR :
  • 250830Z 15006KT 090V210 CAVOK 20/12 Q1016 NOSIG

EXPIRED METARs :
  • 250800Z 22005KT 170V260 CAVOK 19/10 Q1015 NOSIG
  • 250730Z 22006KT 190V250 CAVOK 19/10 Q1015 NOSIG
  • 250700Z 19006KT 120V250 CAVOK 19/10 Q1015 NOSIG
  • 250630Z 30007KT 270V340 CAVOK 20/08 Q1014 NOSIG
  • 250600Z 28004KT 230V320 CAVOK 19/08 Q1014 NOSIG

TAF TAF LEAL
Valid from the 25 at 06:00 until the 26 at 06:00 UTC


250500Z 2506/2606 02008KT 9999 FEW025 TX24/2512Z TN16/2506Z
TEMPO 2506/2518 3000 SHRA FEW020TCU BKN030
PROB30
TEMPO 2506/2511 TSRA FEW020CB BKN030
TEMPO 2508/2510 08009G27KT
No reported NOTAMs for that airfield.



MET'MAP, your aeronautical weather chart ! - Copyright ORBIFLY December 2007 - Disclaimer

ORBIFLY MET'MAP TEAM :

Programming & Development : Alexandra Zaïnal
Concept & Development : Baudouin d'Aumeries
Co-Development & Prog : Marc-Olivier Méhu
Technical & hardware support : Manuel Goepfert

Contact : metmap@orbifly.com




SOURCES & CREDITS :

   NOAA